createdAt,value
2017-10-31T00:01:46.860Z,99941.41
2017-10-31T00:04:21.382Z,99934.42
2017-10-31T00:06:55.876Z,99935.31
2017-10-31T00:09:30.553Z,99935.77
2017-10-31T00:12:04.935Z,99933.09
2017-10-31T00:14:39.295Z,99937.32
2017-10-31T00:17:13.923Z,99937.16
2017-10-31T00:19:48.551Z,99935.31
2017-10-31T00:22:22.950Z,99939.87
2017-10-31T00:24:57.551Z,99915.06
2017-10-31T00:27:32.066Z,99951.44
2017-10-31T00:30:09.451Z,99952.37
2017-10-31T00:32:43.851Z,99959.31
2017-10-31T00:35:18.347Z,99956.20
2017-10-31T00:37:53.009Z,99949.74
2017-10-31T00:40:27.398Z,99950.97
2017-10-31T00:43:01.862Z,99950.39
2017-10-31T00:45:36.334Z,99946.56
2017-10-31T00:48:10.745Z,99939.13
2017-10-31T00:50:45.190Z,99943.94
2017-10-31T00:53:19.814Z,99936.50
2017-10-31T00:55:54.269Z,99933.69
2017-10-31T00:58:28.691Z,99940.45
2017-10-31T01:01:03.075Z,99937.45
2017-10-31T01:03:37.507Z,99932.36
2017-10-31T01:06:11.922Z,99949.95
2017-10-31T01:08:46.454Z,99951.50
2017-10-31T01:11:20.870Z,99946.28
2017-10-31T01:13:55.759Z,99942.28
2017-10-31T01:16:30.258Z,99944.44
2017-10-31T01:19:04.842Z,99935.62
2017-10-31T01:21:39.319Z,99940.09
2017-10-31T01:24:13.901Z,99930.00
2017-10-31T01:26:48.279Z,99941.98
2017-10-31T01:29:22.769Z,99942.09
2017-10-31T01:31:57.242Z,99932.90
2017-10-31T01:34:31.750Z,99942.65
2017-10-31T01:37:06.215Z,99939.91
2017-10-31T01:39:40.804Z,99941.06
2017-10-31T01:42:15.259Z,99934.00
2017-10-31T01:44:49.886Z,99928.89
2017-10-31T01:47:24.328Z,99921.27
2017-10-31T01:49:58.920Z,99925.23
2017-10-31T01:52:33.490Z,99927.11
2017-10-31T01:55:12.506Z,99919.53
2017-10-31T01:57:47.123Z,99920.73
2017-10-31T02:00:21.199Z,99913.80
2017-10-31T02:02:55.336Z,99917.20
2017-10-31T02:05:29.763Z,99915.48
2017-10-31T02:08:04.261Z,99911.70
2017-10-31T02:10:38.715Z,99901.16
2017-10-31T02:13:13.266Z,99903.43
2017-10-31T02:15:47.721Z,99908.11
2017-10-31T02:18:22.166Z,99894.47
2017-10-31T02:20:56.276Z,99892.63
2017-10-31T02:23:30.523Z,99894.02
2017-10-31T02:26:04.918Z,99895.44
2017-10-31T02:28:39.135Z,99898.27
2017-10-31T02:31:13.278Z,99889.75
2017-10-31T02:33:47.570Z,99897.40
2017-10-31T02:36:21.674Z,99886.56
2017-10-31T02:39:07.444Z,99896.58
2017-10-31T02:41:41.622Z,99897.80
2017-10-31T02:44:15.762Z,99895.55
2017-10-31T02:46:50.091Z,99903.91
2017-10-31T02:49:24.299Z,99902.78
2017-10-31T02:51:58.764Z,99901.34
2017-10-31T02:54:32.913Z,99907.39
2017-10-31T02:57:06.960Z,99908.02
2017-10-31T02:59:41.277Z,99907.23
2017-10-31T03:02:15.706Z,99923.40
2017-10-31T03:04:50.282Z,99914.58
2017-10-31T03:07:24.410Z,99918.06
2017-10-31T03:09:58.564Z,99919.86
2017-10-31T03:12:33.056Z,99926.59
2017-10-31T03:15:13.659Z,99876.42
2017-10-31T03:17:48.065Z,99927.35
2017-10-31T03:20:22.618Z,99928.47
2017-10-31T03:22:56.863Z,99933.50
2017-10-31T03:25:30.956Z,99934.38
2017-10-31T03:28:05.067Z,99931.70
2017-10-31T03:30:39.172Z,99937.56
2017-10-31T03:33:13.444Z,99912.63
2017-10-31T03:35:47.475Z,99938.44
2017-10-31T03:38:21.575Z,99936.88
2017-10-31T03:40:55.662Z,99938.44
2017-10-31T03:43:29.900Z,99925.45
2017-10-31T03:46:03.979Z,99927.45
2017-10-31T03:48:38.163Z,99932.47
2017-10-31T03:51:12.471Z,99928.84
2017-10-31T03:53:46.987Z,99931.45
2017-10-31T03:56:21.048Z,99932.01
2017-10-31T03:58:55.311Z,99922.42
2017-10-31T04:01:29.436Z,99931.66
2017-10-31T04:04:04.002Z,99926.37
2017-10-31T04:06:38.886Z,99916.27
2017-10-31T04:09:13.343Z,99921.66
2017-10-31T04:11:47.821Z,99925.95
2017-10-31T04:14:22.370Z,99928.16
2017-10-31T04:16:56.794Z,99935.65
2017-10-31T04:19:31.435Z,99932.77
2017-10-31T04:22:05.819Z,99910.20
2017-10-31T04:24:40.039Z,99926.61
2017-10-31T04:27:14.291Z,99928.00
2017-10-31T04:29:48.888Z,99923.53
2017-10-31T04:32:23.263Z,99919.23
2017-10-31T04:34:57.815Z,99921.38
2017-10-31T04:37:32.220Z,99908.80
2017-10-31T04:40:13.131Z,99911.05
2017-10-31T04:42:47.634Z,99907.63
2017-10-31T04:45:22.189Z,99923.88
2017-10-31T04:47:56.776Z,99901.89
2017-10-31T04:50:32.016Z,99927.69
2017-10-31T04:53:06.638Z,99931.48
2017-10-31T04:55:40.714Z,99926.19
2017-10-31T04:58:14.882Z,99928.70
2017-10-31T05:00:49.382Z,99940.00
2017-10-31T05:03:23.855Z,99941.50
2017-10-31T05:05:58.274Z,99945.17
2017-10-31T05:08:32.738Z,99946.45
2017-10-31T05:11:07.207Z,99935.65
2017-10-31T05:13:41.846Z,99949.59
2017-10-31T05:16:16.226Z,99943.33
2017-10-31T05:18:50.692Z,99951.33
2017-10-31T05:21:25.078Z,99948.66
2017-10-31T05:23:59.639Z,99955.89
2017-10-31T05:26:34.031Z,99946.31
2017-10-31T05:29:08.479Z,99959.50
2017-10-31T05:31:42.985Z,99968.16
2017-10-31T05:34:17.362Z,99965.25
2017-10-31T05:36:51.859Z,99957.80
2017-10-31T05:39:26.471Z,99977.72
2017-10-31T05:42:01.053Z,99980.53
2017-10-31T05:44:35.585Z,99984.40
2017-10-31T05:47:10.132Z,99985.44
2017-10-31T05:49:44.654Z,99982.77
2017-10-31T05:52:19.047Z,99986.61
2017-10-31T05:54:53.647Z,99986.36
2017-10-31T05:57:28.106Z,99994.78
2017-10-31T06:00:03.010Z,99987.64
2017-10-31T06:02:37.472Z,99993.44
2017-10-31T06:05:11.883Z,99996.98
2017-10-31T06:07:46.353Z,99993.17
2017-10-31T06:10:21.475Z,100006.17
2017-10-31T06:12:56.007Z,99993.13
2017-10-31T06:15:30.494Z,100007.86
2017-10-31T06:18:05.023Z,100013.09
2017-10-31T06:20:39.339Z,100020.09
2017-10-31T06:23:19.194Z,100022.02
2017-10-31T06:25:59.283Z,100024.09
2017-10-31T06:28:39.287Z,100022.65
2017-10-31T06:31:19.321Z,100020.33
2017-10-31T06:33:53.871Z,100023.41
2017-10-31T06:36:28.789Z,100014.89
2017-10-31T06:39:03.746Z,100031.99
2017-10-31T06:41:38.422Z,100033.63
2017-10-31T06:44:12.831Z,100040.87
2017-10-31T06:46:47.351Z,100043.60
2017-10-31T06:49:21.814Z,100041.39
2017-10-31T06:51:56.366Z,100048.21
2017-10-31T06:54:30.959Z,100053.25
2017-10-31T06:57:05.420Z,100051.15
2017-10-31T06:59:40.263Z,100055.16
2017-10-31T07:02:14.740Z,100053.95
2017-10-31T07:04:49.474Z,100052.57
2017-10-31T07:07:23.931Z,100059.35
2017-10-31T07:09:58.495Z,100060.91
2017-10-31T07:12:32.933Z,100062.95
2017-10-31T07:15:13.813Z,100066.84
2017-10-31T07:17:48.310Z,100078.67
2017-10-31T07:20:22.795Z,100071.27
2017-10-31T07:22:57.402Z,100080.01
2017-10-31T07:25:31.874Z,100080.06
2017-10-31T07:28:06.331Z,100043.70
2017-10-31T07:30:40.876Z,100076.20
2017-10-31T07:33:15.476Z,100079.49
2017-10-31T07:35:49.989Z,100064.53
2017-10-31T07:38:24.530Z,100075.55
2017-10-31T07:40:59.019Z,100073.06
2017-10-31T07:43:33.507Z,100079.14
2017-10-31T07:46:07.926Z,100068.23
2017-10-31T07:48:42.398Z,100073.17
2017-10-31T07:51:16.975Z,100073.88
2017-10-31T07:53:51.830Z,100069.22
2017-10-31T07:56:26.547Z,100066.08
2017-10-31T07:59:00.634Z,100070.91
2017-10-31T08:01:35.029Z,100071.72
2017-10-31T08:04:09.615Z,100069.00
2017-10-31T08:06:44.082Z,100069.11
2017-10-31T08:09:18.703Z,100071.62
2017-10-31T08:11:53.355Z,100074.17
2017-10-31T08:14:27.961Z,100062.19
2017-10-31T08:17:02.496Z,100071.95
2017-10-31T08:19:37.006Z,100067.23
2017-10-31T08:22:11.509Z,100073.63
2017-10-31T08:24:46.186Z,100071.25
2017-10-31T08:27:20.829Z,100053.48
2017-10-31T08:29:55.416Z,100063.17
2017-10-31T08:32:29.877Z,100068.78
2017-10-31T08:35:12.594Z,100068.50
2017-10-31T08:37:47.084Z,100064.54
2017-10-31T08:40:22.270Z,100068.89
2017-10-31T08:42:56.654Z,100071.09
2017-10-31T08:45:31.770Z,100071.58
2017-10-31T08:48:06.299Z,100072.16
2017-10-31T08:50:40.775Z,100067.77
2017-10-31T08:53:15.395Z,100066.82
2017-10-31T08:55:50.334Z,100069.36
2017-10-31T08:58:24.829Z,100064.00
2017-10-31T09:00:59.513Z,100070.09
2017-10-31T09:03:34.014Z,100079.91
2017-10-31T09:06:08.430Z,100081.83
2017-10-31T09:08:42.946Z,100077.87
2017-10-31T09:11:17.508Z,100086.27
2017-10-31T09:13:51.982Z,100085.34
2017-10-31T09:16:26.622Z,100086.66
2017-10-31T09:19:01.222Z,100089.10
2017-10-31T09:21:35.764Z,100058.42
2017-10-31T09:24:10.438Z,100086.59
2017-10-31T09:26:44.914Z,100082.10
2017-10-31T09:29:19.542Z,100085.05
2017-10-31T09:31:54.061Z,100082.74
2017-10-31T09:34:28.803Z,100088.05
2017-10-31T09:37:03.194Z,100086.42
2017-10-31T09:39:37.758Z,100086.69
2017-10-31T09:42:12.191Z,100083.59
2017-10-31T09:44:46.688Z,100085.93
2017-10-31T09:47:21.116Z,100042.58
2017-10-31T09:49:55.563Z,100081.53
2017-10-31T09:52:30.091Z,100086.27
2017-10-31T09:55:13.817Z,100071.80
2017-10-31T09:57:48.494Z,100085.36
2017-10-31T10:00:23.095Z,100078.67
2017-10-31T10:02:57.602Z,100078.17
2017-10-31T10:05:32.097Z,100072.49
2017-10-31T10:08:06.645Z,100072.73
2017-10-31T10:10:41.135Z,100065.52
2017-10-31T10:13:15.550Z,100067.20
2017-10-31T10:15:49.984Z,100037.26
2017-10-31T10:18:24.382Z,100049.31
2017-10-31T10:20:58.910Z,100057.72
2017-10-31T10:23:33.482Z,100062.91
2017-10-31T10:26:08.106Z,100047.86
2017-10-31T10:28:42.603Z,100022.11
2017-10-31T10:31:17.003Z,100051.16
2017-10-31T10:33:51.386Z,100046.91
2017-10-31T10:36:25.877Z,100049.91
2017-10-31T10:39:00.438Z,100044.98
2017-10-31T10:41:34.877Z,100039.09
2017-10-31T10:44:09.265Z,100034.96
2017-10-31T10:46:43.747Z,100048.05
2017-10-31T10:49:18.259Z,100041.55
2017-10-31T10:51:52.678Z,100033.21
2017-10-31T10:54:27.173Z,100023.18
2017-10-31T10:57:01.670Z,100040.56
2017-10-31T10:59:36.189Z,100036.35
2017-10-31T11:02:10.272Z,100031.70
2017-10-31T11:04:44.855Z,100029.23
2017-10-31T11:07:19.275Z,100024.13
2017-10-31T11:09:54.184Z,100032.42
2017-10-31T11:12:28.607Z,100028.12
2017-10-31T11:15:04.682Z,100026.08
2017-10-31T11:17:43.759Z,100019.55
2017-10-31T11:20:17.829Z,100022.02
2017-10-31T11:22:52.434Z,100013.02
2017-10-31T11:25:27.056Z,100017.11
2017-10-31T11:28:01.511Z,100017.95
2017-10-31T11:30:36.068Z,100015.97
2017-10-31T11:33:10.655Z,100014.72
2017-10-31T11:35:45.095Z,100004.39
2017-10-31T11:38:19.693Z,100000.34
2017-10-31T11:40:54.158Z,100014.14
2017-10-31T11:43:28.753Z,100009.01
2017-10-31T11:46:03.372Z,100006.23
2017-10-31T11:48:37.827Z,100007.00
2017-10-31T11:51:12.915Z,100008.75
2017-10-31T11:53:47.566Z,100000.80
2017-10-31T11:56:21.960Z,99995.86
2017-10-31T11:58:56.386Z,99994.05
2017-10-31T12:01:30.775Z,99986.95
2017-10-31T12:04:05.426Z,99987.19
2017-10-31T12:06:39.647Z,99995.00
2017-10-31T12:09:14.277Z,99985.13
2017-10-31T12:11:49.106Z,99950.69
2017-10-31T12:14:23.763Z,99995.31
2017-10-31T12:16:58.226Z,99973.42
2017-10-31T12:19:32.827Z,99987.37
2017-10-31T12:22:06.946Z,99982.11
2017-10-31T12:24:41.683Z,99980.41
2017-10-31T12:27:16.308Z,99985.47
2017-10-31T12:29:50.903Z,99974.78
2017-10-31T12:32:25.334Z,99983.36
2017-10-31T12:34:59.922Z,99979.25
2017-10-31T12:37:34.376Z,99973.88
2017-10-31T12:40:08.856Z,99830.41
2017-10-31T12:42:43.279Z,99966.91
2017-10-31T12:45:17.701Z,99979.35
2017-10-31T12:47:53.162Z,99989.39
2017-10-31T12:50:27.690Z,99982.47
2017-10-31T12:53:02.291Z,99973.09
2017-10-31T12:55:36.728Z,99977.97
2017-10-31T12:58:11.155Z,99970.45
2017-10-31T13:00:45.662Z,99975.56
2017-10-31T13:03:20.329Z,99987.50
2017-10-31T13:05:54.511Z,99988.55
2017-10-31T13:08:28.643Z,99978.09
2017-10-31T13:11:03.161Z,99982.02
2017-10-31T13:13:37.611Z,99976.10
2017-10-31T13:16:12.115Z,99980.80
2017-10-31T13:18:46.509Z,99984.34
2017-10-31T13:21:20.917Z,99977.56
2017-10-31T13:23:55.462Z,99981.49
2017-10-31T13:26:30.203Z,99986.04
2017-10-31T13:29:04.995Z,99989.39
2017-10-31T13:31:40.524Z,99985.25
2017-10-31T13:34:16.257Z,99989.88
2017-10-31T13:36:50.979Z,99998.25
2017-10-31T13:39:26.743Z,99961.05
2017-10-31T13:42:02.601Z,99992.00
2017-10-31T13:44:38.466Z,99991.35
2017-10-31T13:47:13.254Z,99987.38
2017-10-31T13:49:47.987Z,99987.95
2017-10-31T13:52:23.118Z,99976.77
2017-10-31T13:54:57.711Z,99979.09
2017-10-31T13:57:32.199Z,99983.14
2017-10-31T14:00:07.791Z,99976.84
2017-10-31T14:02:42.995Z,99968.56
2017-10-31T14:05:17.775Z,99984.10
2017-10-31T14:07:53.488Z,99979.06
2017-10-31T14:10:28.580Z,99981.33
2017-10-31T14:13:04.577Z,99982.47
2017-10-31T14:15:39.154Z,99982.25
2017-10-31T14:18:13.934Z,99977.60
2017-10-31T14:20:49.654Z,99984.31
2017-10-31T14:23:24.805Z,99985.03
2017-10-31T14:25:59.562Z,99992.80
2017-10-31T14:28:34.630Z,99978.13
2017-10-31T14:31:09.332Z,99979.92
2017-10-31T14:33:44.319Z,99985.14
2017-10-31T14:36:18.966Z,99978.16
2017-10-31T14:38:53.984Z,99981.02
2017-10-31T14:41:29.668Z,99983.90
2017-10-31T14:44:04.471Z,99984.69
2017-10-31T14:46:39.006Z,99986.94
2017-10-31T14:49:14.585Z,99977.60
2017-10-31T14:51:49.059Z,99978.05
2017-10-31T14:56:57.507Z,99978.66
2017-10-31T14:59:32.114Z,99979.09
2017-10-31T15:02:06.558Z,99978.87
2017-10-31T15:04:41.178Z,99980.41
2017-10-31T15:07:15.703Z,99984.95
2017-10-31T15:09:50.818Z,99982.37
2017-10-31T15:12:25.458Z,99980.70
2017-10-31T15:14:59.854Z,99990.30
2017-10-31T15:17:34.351Z,99980.89
2017-10-31T15:20:08.802Z,99980.20
2017-10-31T15:22:43.250Z,99972.41
2017-10-31T15:25:17.718Z,99969.20
2017-10-31T15:27:52.267Z,99989.21
2017-10-31T15:30:26.689Z,99978.33
2017-10-31T15:33:01.091Z,99981.22
2017-10-31T15:35:35.498Z,99981.90
2017-10-31T15:38:10.035Z,99980.63
2017-10-31T15:40:44.450Z,99968.95
2017-10-31T15:43:19.084Z,99975.08
2017-10-31T15:45:54.022Z,99968.52
2017-10-31T15:48:27.946Z,99971.14
2017-10-31T15:51:02.425Z,99971.03
2017-10-31T15:53:36.992Z,99970.45
2017-10-31T15:56:11.585Z,99978.04
2017-10-31T15:58:46.179Z,99974.28
2017-10-31T16:01:20.615Z,99970.04
2017-10-31T16:03:55.120Z,99990.16
2017-10-31T16:06:29.716Z,99989.02
2017-10-31T16:09:03.668Z,99986.42
2017-10-31T16:11:38.054Z,99991.85
2017-10-31T16:14:12.746Z,99988.91
2017-10-31T16:16:47.129Z,99993.63
2017-10-31T16:19:21.630Z,100000.16
2017-10-31T16:21:56.096Z,99997.95
2017-10-31T16:24:30.735Z,99993.00
2017-10-31T16:27:05.134Z,100002.14
2017-10-31T16:29:39.743Z,100008.64
2017-10-31T16:32:14.354Z,99987.00
2017-10-31T16:34:48.978Z,100013.98
2017-10-31T16:37:23.466Z,100013.63
2017-10-31T16:39:58.021Z,100017.19
2017-10-31T16:42:32.479Z,100019.58
2017-10-31T16:45:07.040Z,100036.66
2017-10-31T16:47:41.610Z,100027.65
2017-10-31T16:50:16.589Z,100023.63
2017-10-31T16:52:51.121Z,100025.20
2017-10-31T16:55:25.639Z,100026.86
2017-10-31T16:58:00.355Z,100030.25
2017-10-31T17:00:34.859Z,100033.86
2017-10-31T17:03:09.596Z,100009.06
2017-10-31T17:05:44.199Z,100028.47
2017-10-31T17:08:18.720Z,100038.17
2017-10-31T17:10:53.183Z,100038.93
2017-10-31T17:13:27.755Z,100030.39
2017-10-31T17:16:02.260Z,100042.48
2017-10-31T17:18:36.396Z,100051.05
2017-10-31T17:21:10.994Z,100050.03
2017-10-31T17:23:45.662Z,100047.34
2017-10-31T17:26:20.163Z,100043.47
2017-10-31T17:28:54.807Z,100055.42
2017-10-31T17:31:29.258Z,100054.20
2017-10-31T17:34:03.721Z,100058.07
2017-10-31T17:36:38.228Z,100057.55
2017-10-31T17:39:12.802Z,100051.34
2017-10-31T17:41:47.184Z,100058.69
2017-10-31T17:44:21.754Z,100059.97
2017-10-31T17:46:56.223Z,100050.50
2017-10-31T17:49:30.694Z,100053.27
2017-10-31T17:52:05.147Z,100048.25
2017-10-31T17:54:39.751Z,100046.36
2017-10-31T17:57:14.154Z,100060.17
2017-10-31T17:59:48.740Z,100056.30
2017-10-31T18:02:23.131Z,100067.22
2017-10-31T18:04:57.772Z,100061.95
2017-10-31T18:07:32.198Z,100069.76
2017-10-31T18:10:14.375Z,100073.02
2017-10-31T18:12:48.982Z,100077.12
2017-10-31T18:15:23.519Z,100076.34
2017-10-31T18:17:58.314Z,100068.59
2017-10-31T18:20:33.078Z,100072.95
2017-10-31T18:23:07.586Z,100087.61
2017-10-31T18:25:42.200Z,100079.27
2017-10-31T18:28:16.747Z,100080.86
2017-10-31T18:30:51.130Z,100082.98
2017-10-31T18:33:25.555Z,100088.56
2017-10-31T18:36:00.426Z,100083.31
2017-10-31T18:38:34.812Z,100086.96
2017-10-31T18:41:09.379Z,100086.59
2017-10-31T18:43:43.882Z,100089.38
2017-10-31T18:46:18.394Z,100088.64
2017-10-31T18:48:52.898Z,100086.63
2017-10-31T18:51:27.410Z,100092.29
2017-10-31T18:54:01.827Z,100088.47
2017-10-31T18:56:36.372Z,100083.82
2017-10-31T18:59:10.971Z,100083.41
2017-10-31T19:01:45.442Z,100089.70
2017-10-31T19:04:20.089Z,100078.69
2017-10-31T19:06:54.578Z,100087.58
2017-10-31T19:09:29.117Z,100092.28
2017-10-31T19:12:03.542Z,100089.18
2017-10-31T19:14:38.478Z,100096.92
2017-10-31T19:17:12.915Z,100089.48
2017-10-31T19:19:47.570Z,100093.30
2017-10-31T19:22:21.974Z,100095.66
2017-10-31T19:24:56.515Z,100099.72
2017-10-31T19:27:30.922Z,100100.46
2017-10-31T19:30:08.894Z,100095.36
2017-10-31T19:32:43.550Z,100091.44
2017-10-31T19:35:17.971Z,100091.50
2017-10-31T19:37:52.388Z,100093.98
2017-10-31T19:40:27.207Z,100092.92
2017-10-31T19:43:01.659Z,100089.19
2017-10-31T19:45:36.276Z,100093.74
2017-10-31T19:48:10.849Z,100097.32
2017-10-31T19:50:45.287Z,100099.61
2017-10-31T19:53:19.841Z,100077.14
2017-10-31T19:55:54.472Z,100106.59
2017-10-31T19:58:31.251Z,100109.52
2017-10-31T20:01:05.798Z,100107.86
2017-10-31T20:03:40.403Z,100109.56
2017-10-31T20:06:14.859Z,100108.45
2017-10-31T20:08:49.378Z,100106.45
2017-10-31T20:11:24.305Z,100109.84
2017-10-31T20:13:58.872Z,100107.09
2017-10-31T20:16:33.318Z,100102.00
2017-10-31T20:19:07.714Z,100100.06
2017-10-31T20:21:42.140Z,100102.23
2017-10-31T20:24:16.586Z,100104.02
2017-10-31T20:26:51.123Z,100102.89
2017-10-31T20:29:25.652Z,100104.22
2017-10-31T20:32:00.103Z,100101.59
2017-10-31T20:34:34.650Z,100106.14
2017-10-31T20:37:09.046Z,100103.22
2017-10-31T20:39:43.587Z,100103.94
2017-10-31T20:42:18.040Z,100096.56
2017-10-31T20:44:52.560Z,100100.59
2017-10-31T20:47:26.918Z,100100.22
2017-10-31T20:50:01.372Z,100105.34
2017-10-31T20:52:35.919Z,100106.59
2017-10-31T20:55:14.537Z,100106.79
2017-10-31T20:57:49.135Z,100107.30
2017-10-31T21:00:23.354Z,100110.21
2017-10-31T21:02:58.008Z,100111.33
2017-10-31T21:05:32.431Z,100112.37
2017-10-31T21:08:07.110Z,100103.78
2017-10-31T21:10:41.498Z,100107.59
2017-10-31T21:13:17.662Z,100107.09
2017-10-31T21:15:52.239Z,100108.86
2017-10-31T21:18:27.075Z,100104.72
2017-10-31T21:21:01.532Z,100111.69
2017-10-31T21:23:35.955Z,100106.06
2017-10-31T21:26:11.064Z,100111.50
2017-10-31T21:28:45.614Z,100105.12
2017-10-31T21:31:20.025Z,100108.23
2017-10-31T21:33:54.582Z,100109.39
2017-10-31T21:36:29.118Z,100109.42
2017-10-31T21:39:03.231Z,100100.80
2017-10-31T21:41:37.787Z,100100.56
2017-10-31T21:44:12.342Z,100106.78
2017-10-31T21:46:46.883Z,100108.16
2017-10-31T21:49:21.602Z,100106.61
2017-10-31T21:51:56.020Z,100104.63
2017-10-31T21:54:30.552Z,100102.44
2017-10-31T21:57:05.412Z,100105.45
2017-10-31T21:59:39.887Z,100109.92
2017-10-31T22:02:14.481Z,100113.05
2017-10-31T22:04:48.958Z,100111.78
2017-10-31T22:07:23.368Z,100116.17
2017-10-31T22:09:57.883Z,100114.68
2017-10-31T22:12:32.390Z,100114.05
2017-10-31T22:15:14.889Z,100117.77
2017-10-31T22:17:49.438Z,100113.58
2017-10-31T22:20:23.932Z,100105.30
2017-10-31T22:22:58.410Z,100110.06
2017-10-31T22:25:32.794Z,100106.16
2017-10-31T22:28:07.339Z,100106.95
2017-10-31T22:30:41.858Z,100104.87
2017-10-31T22:33:16.398Z,100101.22
2017-10-31T22:35:50.566Z,100094.00
2017-10-31T22:38:25.005Z,100089.80
2017-10-31T22:40:59.915Z,100090.19
2017-10-31T22:43:33.856Z,100085.34
2017-10-31T22:46:08.710Z,100082.67
2017-10-31T22:48:44.138Z,100081.03
2017-10-31T22:51:18.738Z,100076.94
2017-10-31T22:53:53.755Z,100086.95
2017-10-31T22:56:28.269Z,100079.39
2017-10-31T22:59:02.867Z,100077.72
2017-10-31T23:01:37.295Z,100078.17
2017-10-31T23:04:11.824Z,100070.51
2017-10-31T23:06:46.251Z,100076.27
2017-10-31T23:09:20.842Z,100076.20
2017-10-31T23:11:55.328Z,100053.59
2017-10-31T23:14:29.834Z,100077.98
2017-10-31T23:17:04.371Z,100082.07
2017-10-31T23:19:38.910Z,100077.05
2017-10-31T23:22:13.291Z,100076.34
2017-10-31T23:24:47.878Z,100081.89
2017-10-31T23:27:22.518Z,100072.55
2017-10-31T23:29:56.998Z,100075.30
2017-10-31T23:32:31.462Z,100071.61
2017-10-31T23:35:14.469Z,100071.48
2017-10-31T23:37:48.876Z,100068.31
2017-10-31T23:40:23.292Z,100075.86
2017-10-31T23:42:57.846Z,100071.02
2017-10-31T23:45:32.280Z,100058.23
2017-10-31T23:48:06.714Z,100069.28
2017-10-31T23:50:41.210Z,100066.09
2017-10-31T23:53:15.842Z,100072.03
2017-10-31T23:55:50.273Z,100070.44
2017-10-31T23:58:24.667Z,100070.61
